createdAt,value
2022-09-09T00:00:55.172Z,8.93
2022-09-09T00:03:48.844Z,9.03
2022-09-09T00:06:45.948Z,9.83
2022-09-09T00:09:41.232Z,9.13
2022-09-09T00:12:36.618Z,9.53
2022-09-09T00:15:29.759Z,9.10
2022-09-09T00:18:25.242Z,8.60
2022-09-09T00:21:18.265Z,8.60
2022-09-09T00:24:14.979Z,8.87
2022-09-09T00:27:07.611Z,9.47
2022-09-09T00:30:01.058Z,9.20
2022-09-09T00:32:55.800Z,9.33
2022-09-09T00:35:49.922Z,9.40
2022-09-09T00:38:44.465Z,9.27
2022-09-09T00:41:42.283Z,8.93
2022-09-09T00:44:36.154Z,8.70
2022-09-09T00:47:36.522Z,9.73
2022-09-09T00:50:37.382Z,9.10
2022-09-09T00:53:35.107Z,9.43
2022-09-09T00:56:29.029Z,9.50
2022-09-09T00:59:28.609Z,9.60
2022-09-09T01:02:27.905Z,9.00
2022-09-09T01:05:22.338Z,9.40
2022-09-09T01:08:20.169Z,9.47
2022-09-09T01:11:18.082Z,9.27
2022-09-09T01:14:13.969Z,10.20
2022-09-09T01:17:07.565Z,9.43
2022-09-09T01:20:04.395Z,9.33
2022-09-09T01:23:04.337Z,9.83
2022-09-09T01:26:13.726Z,9.40
2022-09-09T01:29:09.095Z,9.83
2022-09-09T01:32:01.385Z,9.73
2022-09-09T01:34:53.596Z,9.57
2022-09-09T01:37:44.666Z,9.47
2022-09-09T01:40:35.985Z,9.43
2022-09-09T01:43:29.581Z,9.60
2022-09-09T01:46:23.679Z,10.23
2022-09-09T01:49:14.935Z,9.17
2022-09-09T01:52:07.045Z,9.37
2022-09-09T01:54:58.167Z,9.83
2022-09-09T01:57:53.513Z,9.63
2022-09-09T02:00:46.633Z,10.33
2022-09-09T02:03:38.892Z,9.57
2022-09-09T02:06:33.310Z,9.30
2022-09-09T02:09:25.387Z,10.17
2022-09-09T02:12:18.392Z,10.77
2022-09-09T02:15:12.624Z,9.13
2022-09-09T02:18:08.953Z,10.37
2022-09-09T02:21:01.557Z,10.30
2022-09-09T02:23:54.104Z,10.07
2022-09-09T02:26:47.061Z,10.47
2022-09-09T02:29:41.547Z,9.47
2022-09-09T02:32:34.501Z,10.17
2022-09-09T02:35:27.610Z,9.67
2022-09-09T02:38:22.309Z,9.63
2022-09-09T02:41:13.508Z,8.97
2022-09-09T02:44:07.865Z,8.93
2022-09-09T02:47:09.671Z,8.83
2022-09-09T02:50:04.893Z,9.00
2022-09-09T02:53:04.103Z,9.07
2022-09-09T02:55:59.093Z,8.70
2022-09-09T02:58:52.956Z,8.53
2022-09-09T03:01:45.095Z,8.70
2022-09-09T03:04:36.089Z,8.63
2022-09-09T03:07:28.449Z,9.23
2022-09-09T03:10:19.741Z,8.43
2022-09-09T03:13:13.902Z,8.60
2022-09-09T03:16:06.669Z,9.50
2022-09-09T03:18:58.223Z,9.27
2022-09-09T03:21:50.459Z,8.43
2022-09-09T03:24:41.732Z,8.63
2022-09-09T03:27:33.553Z,8.80
2022-09-09T03:30:26.711Z,8.90
2022-09-09T03:33:18.854Z,8.60
2022-09-09T03:36:11.521Z,8.20
2022-09-09T03:39:04.097Z,8.37
2022-09-09T03:41:55.446Z,8.40
2022-09-09T03:44:49.069Z,8.47
2022-09-09T03:47:41.407Z,8.17
2022-09-09T03:50:33.240Z,8.63
2022-09-09T03:53:25.691Z,8.87
2022-09-09T03:56:16.821Z,8.00
2022-09-09T03:59:07.919Z,8.00
2022-09-09T04:02:00.263Z,8.00
2022-09-09T04:04:52.865Z,8.37
2022-09-09T04:07:44.272Z,7.77
2022-09-09T04:10:37.237Z,8.13
2022-09-09T04:13:28.686Z,8.20
2022-09-09T04:16:21.170Z,8.07
2022-09-09T04:19:13.479Z,7.53
2022-09-09T04:22:06.035Z,7.60
2022-09-09T04:24:57.036Z,8.50
2022-09-09T04:27:48.621Z,8.37
2022-09-09T04:30:40.901Z,7.27
2022-09-09T04:33:34.305Z,7.97
2022-09-09T04:36:28.141Z,7.60
2022-09-09T04:39:20.690Z,7.63
2022-09-09T04:42:14.159Z,7.40
2022-09-09T04:45:05.581Z,7.23
2022-09-09T04:47:56.440Z,6.77
2022-09-09T04:50:55.425Z,7.53
2022-09-09T04:53:47.878Z,6.73
2022-09-09T04:56:42.358Z,6.30
2022-09-09T04:59:33.377Z,6.53
2022-09-09T05:02:27.514Z,7.03
2022-09-09T05:05:21.645Z,7.13
2022-09-09T05:08:13.178Z,6.57
2022-09-09T05:11:04.316Z,6.83
2022-09-09T05:13:57.335Z,6.83
2022-09-09T05:16:50.625Z,5.83
2022-09-09T05:19:41.769Z,6.87
2022-09-09T05:22:32.966Z,6.10
2022-09-09T05:25:25.518Z,6.47
2022-09-09T05:28:16.730Z,5.63
2022-09-09T05:31:10.379Z,5.90
2022-09-09T05:34:01.429Z,5.93
2022-09-09T05:36:53.188Z,5.90
2022-09-09T05:39:44.466Z,6.00
2022-09-09T05:42:35.541Z,5.73
2022-09-09T05:45:26.774Z,6.20
2022-09-09T05:48:19.240Z,6.23
2022-09-09T05:51:11.726Z,5.77
2022-09-09T05:54:02.786Z,6.30
2022-09-09T05:56:54.665Z,5.57
2022-09-09T05:59:45.727Z,5.60
2022-09-09T06:02:39.117Z,5.43
2022-09-09T06:05:31.459Z,5.80
2022-09-09T06:08:22.647Z,6.40
2022-09-09T06:11:14.877Z,6.20
2022-09-09T06:14:06.656Z,5.83
2022-09-09T06:16:57.721Z,5.60
2022-09-09T06:19:48.954Z,5.50
2022-09-09T06:22:42.857Z,6.57
2022-09-09T06:25:35.310Z,5.03
2022-09-09T06:28:26.735Z,5.10
2022-09-09T06:31:25.828Z,4.70
2022-09-09T06:34:19.133Z,4.43
2022-09-09T06:37:11.503Z,4.30
2022-09-09T06:40:04.306Z,4.63
2022-09-09T06:42:55.734Z,4.17
2022-09-09T06:45:54.427Z,4.40
2022-09-09T06:48:46.181Z,4.20
2022-09-09T06:51:38.305Z,4.50
2022-09-09T06:54:29.711Z,4.60
2022-09-09T06:57:38.162Z,4.93
2022-09-09T07:00:29.667Z,4.57
2022-09-09T07:03:21.066Z,4.60
2022-09-09T07:06:15.489Z,5.00
2022-09-09T07:09:08.027Z,5.33
2022-09-09T07:12:00.348Z,4.20
2022-09-09T07:14:52.696Z,4.07
2022-09-09T07:17:43.864Z,3.50
2022-09-09T07:20:35.125Z,3.80
2022-09-09T07:23:27.023Z,3.53
2022-09-09T07:26:20.207Z,3.37
2022-09-09T07:29:18.514Z,3.87
2022-09-09T07:32:13.074Z,3.70
2022-09-09T07:35:04.162Z,3.67
2022-09-09T07:37:55.481Z,3.90
2022-09-09T07:40:46.791Z,3.40
2022-09-09T07:43:37.593Z,3.13
2022-09-09T07:46:29.096Z,3.23
2022-09-09T07:49:27.625Z,3.63
2022-09-09T07:52:22.528Z,3.10
2022-09-09T07:55:13.626Z,3.50
2022-09-09T07:58:04.966Z,2.50
2022-09-09T08:00:56.546Z,3.23
2022-09-09T08:03:48.121Z,4.90
2022-09-09T08:06:41.743Z,2.70
2022-09-09T08:09:34.663Z,6.93
2022-09-09T08:12:25.927Z,11.43
2022-09-09T08:15:17.288Z,7.40
2022-09-09T08:18:10.941Z,4.83
2022-09-09T08:21:07.207Z,2.40
2022-09-09T08:24:00.568Z,3.27
2022-09-09T08:26:51.789Z,2.73
2022-09-09T08:29:43.130Z,2.70
2022-09-09T08:32:36.235Z,2.50
2022-09-09T08:35:27.314Z,2.50
2022-09-09T08:38:19.747Z,2.43
2022-09-09T08:41:24.626Z,2.33
2022-09-09T08:44:21.228Z,2.47
2022-09-09T08:47:14.341Z,2.53
2022-09-09T08:50:09.065Z,2.77
2022-09-09T08:53:03.796Z,4.60
2022-09-09T08:55:56.322Z,6.50
2022-09-09T08:58:50.831Z,4.57
2022-09-09T09:01:52.176Z,10.30
2022-09-09T09:04:52.626Z,3.80
2022-09-09T09:07:53.398Z,2.13
2022-09-09T09:10:51.915Z,2.77
2022-09-09T09:13:47.983Z,4.73
2022-09-09T09:16:50.063Z,5.07
2022-09-09T09:19:42.395Z,3.53
2022-09-09T09:22:37.402Z,4.37
2022-09-09T09:25:33.326Z,3.53
2022-09-09T09:28:25.651Z,4.00
2022-09-09T09:31:17.110Z,2.73
2022-09-09T09:34:11.295Z,2.47
2022-09-09T09:37:03.794Z,2.97
2022-09-09T09:42:55.009Z,1.87
2022-09-09T09:46:06.983Z,2.43
2022-09-09T09:49:01.617Z,2.47
2022-09-09T09:51:54.323Z,4.10
2022-09-09T09:54:46.122Z,3.73
2022-09-09T09:57:39.248Z,2.77
2022-09-09T10:00:30.518Z,2.20
2022-09-09T10:03:28.959Z,2.40
2022-09-09T10:06:31.258Z,2.40
2022-09-09T10:09:25.121Z,2.17
2022-09-09T10:12:20.578Z,2.43
2022-09-09T10:15:21.191Z,2.23
2022-09-09T10:18:20.497Z,2.53
2022-09-09T10:21:17.408Z,2.40
2022-09-09T10:24:15.647Z,2.30
2022-09-09T10:27:13.785Z,3.13
2022-09-09T10:30:09.965Z,2.13
2022-09-09T10:33:06.774Z,2.87
2022-09-09T10:36:02.210Z,1.90
2022-09-09T10:38:55.755Z,2.13
2022-09-09T10:41:51.607Z,2.27
2022-09-09T10:44:58.685Z,3.40
2022-09-09T10:47:56.974Z,2.90
2022-09-09T10:51:03.736Z,2.70
2022-09-09T10:54:06.002Z,5.10
2022-09-09T10:56:59.690Z,13.23
2022-09-09T10:59:53.978Z,12.27
2022-09-09T11:02:47.906Z,9.33
2022-09-09T11:05:43.828Z,4.63
2022-09-09T11:08:36.734Z,3.00
2022-09-09T11:11:31.204Z,2.17
2022-09-09T11:14:25.763Z,1.90
2022-09-09T11:17:19.236Z,2.60
2022-09-09T11:20:14.954Z,2.57
2022-09-09T11:23:10.195Z,1.97
2022-09-09T11:26:04.557Z,2.20
2022-09-09T11:29:04.709Z,1.70
2022-09-09T11:32:03.984Z,2.33
2022-09-09T11:34:57.580Z,3.40
2022-09-09T11:37:56.242Z,4.53
2022-09-09T11:40:47.457Z,4.40
2022-09-09T11:43:42.600Z,2.63
2022-09-09T11:46:36.608Z,2.77
2022-09-09T11:49:29.225Z,2.50
2022-09-09T11:52:25.114Z,2.30
2022-09-09T11:55:27.530Z,2.77
2022-09-09T11:58:19.715Z,5.47
2022-09-09T12:01:37.048Z,4.83
2022-09-09T12:04:31.293Z,14.67
2022-09-09T12:07:32.297Z,5.17
2022-09-09T12:10:28.344Z,2.60
2022-09-09T12:13:20.752Z,4.17
2022-09-09T12:16:32.164Z,2.97
2022-09-09T12:19:26.903Z,3.50
2022-09-09T12:22:32.281Z,8.07
2022-09-09T12:25:30.684Z,3.13
2022-09-09T12:28:24.653Z,3.40
2022-09-09T12:31:20.216Z,3.20
2022-09-09T12:34:12.919Z,2.50
2022-09-09T12:37:06.005Z,3.10
2022-09-09T12:39:58.121Z,2.13
2022-09-09T12:42:51.104Z,2.20
2022-09-09T12:45:43.221Z,2.10
2022-09-09T12:48:37.778Z,2.40
2022-09-09T12:51:31.072Z,6.30
2022-09-09T12:54:23.312Z,7.30
2022-09-09T12:57:15.029Z,11.13
2022-09-09T13:00:11.073Z,6.73
2022-09-09T13:03:03.170Z,10.00
2022-09-09T13:05:55.543Z,23.60
2022-09-09T13:08:47.073Z,4.60
2022-09-09T13:11:40.621Z,6.17
2022-09-09T13:14:35.764Z,4.40
2022-09-09T13:17:30.176Z,7.13
2022-09-09T13:20:22.085Z,2.37
2022-09-09T13:23:13.925Z,2.60
2022-09-09T13:26:07.220Z,4.07
2022-09-09T13:29:09.899Z,3.73
2022-09-09T13:32:07.214Z,2.93
2022-09-09T13:35:00.363Z,7.50
2022-09-09T13:37:52.476Z,13.80
2022-09-09T13:41:00.624Z,8.57
2022-09-09T13:43:52.205Z,8.10
2022-09-09T13:46:44.852Z,4.90
2022-09-09T13:49:36.896Z,2.37
2022-09-09T13:52:32.384Z,2.10
2022-09-09T13:55:24.824Z,11.40
2022-09-09T13:58:18.337Z,13.17
2022-09-09T14:01:12.731Z,20.27
2022-09-09T14:04:04.508Z,31.37
2022-09-09T14:06:58.198Z,5.70
2022-09-09T14:09:56.982Z,2.43
2022-09-09T14:12:50.065Z,2.13
2022-09-09T14:15:41.772Z,2.20
2022-09-09T14:18:35.204Z,2.10
2022-09-09T14:21:27.466Z,3.70
2022-09-09T14:24:19.325Z,2.50
2022-09-09T14:27:12.724Z,6.97
2022-09-09T14:30:05.784Z,5.53
2022-09-09T14:32:57.340Z,2.17
2022-09-09T14:35:51.168Z,2.27
2022-09-09T14:38:44.066Z,1.80
2022-09-09T14:41:35.956Z,3.30
2022-09-09T14:44:28.881Z,7.30
2022-09-09T14:47:20.212Z,3.60
2022-09-09T14:50:13.463Z,3.70
2022-09-09T14:53:05.153Z,2.70
2022-09-09T14:56:04.634Z,2.13
2022-09-09T14:58:56.774Z,2.60
2022-09-09T15:01:49.795Z,1.40
2022-09-09T15:04:41.298Z,1.87
2022-09-09T15:07:32.954Z,4.17
2022-09-09T15:10:23.985Z,12.23
2022-09-09T15:13:17.902Z,11.00
2022-09-09T15:16:10.297Z,3.97
2022-09-09T15:19:03.651Z,3.03
2022-09-09T15:21:55.434Z,3.90
2022-09-09T15:24:46.928Z,2.77
2022-09-09T15:27:40.125Z,2.63
2022-09-09T15:30:31.875Z,8.70
2022-09-09T15:33:23.760Z,3.80
2022-09-09T15:36:17.228Z,6.33
2022-09-09T15:39:09.370Z,4.70
2022-09-09T15:42:02.129Z,7.00
2022-09-09T15:44:53.350Z,8.20
2022-09-09T15:47:44.602Z,4.40
2022-09-09T15:50:35.777Z,3.17
2022-09-09T15:53:30.971Z,2.77
2022-09-09T15:56:22.227Z,3.20
2022-09-09T15:59:13.392Z,3.50
2022-09-09T16:02:05.445Z,5.47
2022-09-09T16:04:58.427Z,5.53
2022-09-09T16:07:50.147Z,15.97
2022-09-09T16:10:42.914Z,17.50
2022-09-09T16:13:36.031Z,7.33
2022-09-09T16:16:28.840Z,5.50
2022-09-09T16:19:20.246Z,4.60
2022-09-09T16:22:12.228Z,3.90
2022-09-09T16:25:03.216Z,12.27
2022-09-09T16:27:55.910Z,7.03
2022-09-09T16:30:47.230Z,5.07
2022-09-09T16:33:38.702Z,7.90
2022-09-09T16:36:31.886Z,11.07
2022-09-09T16:39:23.063Z,11.87
2022-09-09T16:42:13.971Z,9.77
2022-09-09T16:45:07.886Z,8.43
2022-09-09T16:47:59.553Z,6.73
2022-09-09T16:50:51.029Z,6.47
2022-09-09T16:53:43.036Z,7.30
2022-09-09T16:56:37.867Z,5.87
2022-09-09T16:59:29.501Z,5.50
2022-09-09T17:02:22.214Z,6.10
2022-09-09T17:05:14.119Z,6.47
2022-09-09T17:08:06.467Z,6.20
2022-09-09T17:10:57.510Z,4.73
2022-09-09T17:13:49.543Z,4.20
2022-09-09T17:16:41.066Z,3.40
2022-09-09T17:19:34.705Z,3.30
2022-09-09T17:22:27.646Z,3.10
2022-09-09T17:25:19.215Z,2.77
2022-09-09T17:28:10.482Z,2.60
2022-09-09T17:31:03.953Z,28.83
2022-09-09T17:33:55.349Z,16.73
2022-09-09T17:36:47.997Z,7.03
2022-09-09T17:39:39.560Z,4.03
2022-09-09T17:42:30.596Z,3.67
2022-09-09T17:45:21.958Z,3.17
2022-09-09T17:48:13.138Z,2.67
2022-09-09T17:51:04.922Z,2.20
2022-09-09T17:53:59.347Z,3.90
2022-09-09T17:56:50.979Z,2.50
2022-09-09T17:59:42.390Z,2.43
2022-09-09T18:02:33.455Z,2.60
2022-09-09T18:05:24.629Z,2.80
2022-09-09T18:08:15.850Z,2.57
2022-09-09T18:11:08.973Z,2.53
2022-09-09T18:14:01.359Z,2.47
2022-09-09T18:16:52.586Z,2.30
2022-09-09T18:19:43.700Z,3.20
2022-09-09T18:22:34.891Z,3.27
2022-09-09T18:25:26.325Z,2.37
2022-09-09T18:28:24.473Z,2.20
2022-09-09T18:31:16.953Z,2.37
2022-09-09T18:34:10.021Z,2.43
2022-09-09T18:37:00.889Z,2.60
2022-09-09T18:39:53.054Z,2.50
2022-09-09T18:42:44.281Z,2.53
2022-09-09T18:45:38.378Z,2.77
2022-09-09T18:48:29.110Z,3.13
2022-09-09T18:51:21.559Z,3.07
2022-09-09T18:54:13.533Z,3.00
2022-09-09T18:57:04.640Z,2.53
2022-09-09T18:59:55.749Z,2.80
2022-09-09T19:02:52.065Z,2.37
2022-09-09T19:05:43.061Z,2.27
2022-09-09T19:08:37.075Z,2.53
2022-09-09T19:11:29.473Z,3.37
2022-09-09T19:14:21.891Z,3.17
2022-09-09T19:17:13.543Z,3.00
2022-09-09T19:20:08.988Z,3.00
2022-09-09T19:23:00.764Z,2.80
2022-09-09T19:25:52.171Z,3.07
2022-09-09T19:28:45.830Z,2.20
2022-09-09T19:31:37.659Z,2.83
2022-09-09T19:34:28.795Z,2.47
2022-09-09T19:37:22.480Z,2.40
2022-09-09T19:40:13.788Z,2.20
2022-09-09T19:43:04.923Z,2.60
2022-09-09T19:45:59.729Z,2.80
2022-09-09T19:48:51.074Z,2.33
2022-09-09T19:51:43.582Z,2.20
2022-09-09T19:54:36.342Z,2.70
2022-09-09T19:57:30.782Z,2.60
2022-09-09T20:00:21.911Z,3.00
2022-09-09T20:03:19.185Z,2.87
2022-09-09T20:06:13.278Z,2.60
2022-09-09T20:09:06.024Z,2.30
2022-09-09T20:11:59.121Z,1.90
2022-09-09T20:14:49.987Z,3.27
2022-09-09T20:17:41.535Z,2.20
2022-09-09T20:20:32.628Z,2.80
2022-09-09T20:23:23.871Z,2.97
2022-09-09T20:26:17.472Z,3.17
2022-09-09T20:29:15.723Z,3.00
2022-09-09T20:32:07.551Z,3.10
2022-09-09T20:34:59.131Z,3.03
2022-09-09T20:37:50.077Z,3.43
2022-09-09T20:40:41.620Z,2.87
2022-09-09T20:43:33.188Z,2.70
2022-09-09T20:46:27.152Z,2.30
2022-09-09T20:49:19.299Z,2.20
2022-09-09T20:52:11.702Z,2.80
2022-09-09T20:55:02.653Z,2.90
2022-09-09T20:57:53.759Z,3.27
2022-09-09T21:00:44.975Z,2.40
2022-09-09T21:03:38.087Z,2.47
2022-09-09T21:06:29.174Z,2.30
2022-09-09T21:09:22.554Z,2.17
2022-09-09T21:12:13.992Z,2.60
2022-09-09T21:15:05.597Z,2.30
2022-09-09T21:18:00.402Z,2.30
2022-09-09T21:20:53.123Z,2.60
2022-09-09T21:23:44.200Z,1.73
2022-09-09T21:26:35.544Z,2.10
2022-09-09T21:29:26.751Z,2.23
2022-09-09T21:32:17.993Z,2.30
2022-09-09T21:35:12.062Z,2.93
2022-09-09T21:38:04.537Z,1.77
2022-09-09T21:40:55.773Z,2.20
2022-09-09T21:43:47.797Z,1.87
2022-09-09T21:46:39.219Z,1.93
2022-09-09T21:49:30.374Z,2.03
2022-09-09T21:52:21.522Z,2.00
2022-09-09T21:55:14.140Z,2.03
2022-09-09T21:58:05.498Z,2.27
2022-09-09T22:00:56.763Z,1.93
2022-09-09T22:03:47.797Z,2.07
2022-09-09T22:06:38.919Z,2.50
2022-09-09T22:09:30.134Z,2.17
2022-09-09T22:12:22.487Z,2.20
2022-09-09T22:15:13.734Z,2.50
2022-09-09T22:18:05.044Z,2.50
2022-09-09T22:20:56.080Z,2.70
2022-09-09T22:23:52.511Z,2.70
2022-09-09T22:26:43.549Z,2.90
2022-09-09T22:29:36.304Z,2.93
2022-09-09T22:32:27.422Z,2.53
2022-09-09T22:35:18.545Z,2.47
2022-09-09T22:38:10.225Z,2.30
2022-09-09T22:41:02.989Z,2.53
2022-09-09T22:43:54.640Z,2.80
2022-09-09T22:46:47.305Z,3.43
2022-09-09T22:49:38.360Z,2.70
2022-09-09T22:52:31.827Z,2.80
2022-09-09T22:55:22.739Z,2.53
2022-09-09T22:58:13.993Z,2.10
2022-09-09T23:01:08.901Z,2.40
2022-09-09T23:04:02.695Z,2.43
2022-09-09T23:06:53.995Z,2.20
2022-09-09T23:09:45.295Z,2.30
2022-09-09T23:12:36.759Z,1.97
2022-09-09T23:15:31.436Z,2.07
2022-09-09T23:18:24.182Z,2.50
2022-09-09T23:21:17.076Z,2.10
2022-09-09T23:24:08.924Z,2.00
2022-09-09T23:26:59.944Z,2.63
2022-09-09T23:29:51.869Z,2.20
2022-09-09T23:32:47.006Z,2.27
2022-09-09T23:35:38.523Z,2.27
2022-09-09T23:38:31.008Z,2.03
2022-09-09T23:41:22.097Z,2.07
2022-09-09T23:44:16.133Z,2.70
2022-09-09T23:47:07.642Z,2.20
2022-09-09T23:49:59.274Z,2.30
2022-09-09T23:52:51.414Z,1.93
2022-09-09T23:55:44.353Z,2.00
2022-09-09T23:58:35.510Z,2.47
